Terminal Aerodrome Forecast
Issued by NWS Cleveland, OH

Home | Current Version | Previous Version | Text Only | Print | Product List | Glossary Off
Versions: 1 2 3 4 5 6 7 8 9 10 11 12 13 14 15 16 17 18 19 20

000
FTUS41 KCLE 211700
TAFERI
TAF
KERI 211724Z 2118/2218 VRB03KT P6SM BKN250
     FM220200 20008KT P6SM OVC100
     FM220500 22010KT P6SM OVC035
     FM220700 21012KT P6SM OVC015
     FM220900 23010KT 6SM -SHRA OVC015
     FM221200 29009KT P6SM OVC015
     FM221500 28010G20KT P6SM OVC015
     FM221600 31010G20KT P6SM SCT250=

USA.gov is the U.S. government's official web portal to all federal, state and local government web resources and services.